This is the latest recevied weather packets stored in our database for station/object SP2WPY-13. If no packets are shown the sender has not sent any weather packets the latest 10 day(s).
| Time | Temp. | Humidity | Pressure | Rain* | Wind** | Luminosity | Snow |
|---|---|---|---|---|---|---|---|
| 1788010844 | 22.78° C | 82% | 1013.1 hPa | - | - | - | - |
| 1788010525 | 22.22° C | 86% | 1013.1 hPa | - | - | - | - |
| 1788010206 | 22.22° C | 87% | 1013.1 hPa | - | - | - | - |
| 1788009931 | 22.22° C | 89% | 1013 hPa | - | - | - | - |
| 1788009611 | 21.67° C | 95% | 1013 hPa | - | - | - | - |
| 1788009337 | 21.67° C | 94% | 1013 hPa | - | - | - | - |
| 1788009017 | 21.67° C | 93% | 1013 hPa | - | - | - | - |
| 1788008744 | 21.67° C | 96% | 1012.9 hPa | - | - | - | - |
| 1788008424 | 21.11° C | 99% | 1013 hPa | - | - | - | - |
| 1788008104 | 20.56° C | 100% | 1013.1 hPa | - | - | - | - |
| 1788007830 | 20° C | 100% | 1013 hPa | - | - | - | - |
| 1788007510 | 19.44° C | 100% | 1013.1 hPa | - | - | - | - |
| 1788007237 | 19.44° C | 100% | 1013.1 hPa | - | - | - | - |
| 1788006917 | 18.89° C | 100% | 1013.1 hPa | - | - | - | - |
| 1788006643 | 18.89° C | 100% | 1013.1 hPa | - | - | - | - |
| 1788006324 | 19.44° C | 100% | 1013.1 hPa | - | - | - | - |
| 1788006003 | 19.44° C | 98% | 1013 hPa | - | - | - | - |
| 1788005730 | 21.11° C | 87% | 1013 hPa | - | - | - | - |
| 1788005409 | 22.78° C | 81% | 1012.9 hPa | - | - | - | - |
| 1788005137 | 23.33° C | 81% | 1012.8 hPa | - | - | - | - |
| 1788004816 | 22.78° C | 83% | 1012.7 hPa | - | - | - | - |
| 1788004543 | 22.78° C | 85% | 1012.7 hPa | - | - | - | - |
| 1788004223 | 22.78° C | 87% | 1012.6 hPa | - | - | - | - |
| 1788003903 | 22.22° C | 91% | 1012.7 hPa | - | - | - | - |
| 1788003629 | 21.67° C | 94% | 1012.7 hPa | - | - | - | - |
* Rain since midnight (hover to see other rain measurements)
** Current wind speed in m/s (hover to see current wind gust speed)